createdAt,value
2023-05-14T00:07:56.037Z,66
2023-05-14T00:13:04.024Z,66
2023-05-14T00:18:11.968Z,66
2023-05-14T00:23:18.155Z,67
2023-05-14T00:28:26.108Z,67
2023-05-14T00:33:32.253Z,67
2023-05-14T00:38:38.420Z,68
2023-05-14T00:43:46.360Z,68
2023-05-14T00:48:52.521Z,68
2023-05-14T00:54:00.550Z,69
2023-05-14T00:59:06.690Z,68
2023-05-14T01:04:14.611Z,69
2023-05-14T01:09:20.831Z,69
2023-05-14T01:14:28.729Z,69
2023-05-14T01:19:35.025Z,69
2023-05-14T01:24:41.062Z,70
2023-05-14T01:29:49.023Z,70
2023-05-14T01:34:55.199Z,70
2023-05-14T01:40:03.176Z,70
2023-05-14T01:45:09.348Z,71
2023-05-14T01:50:15.549Z,71
2023-05-14T01:55:23.428Z,71
2023-05-14T02:00:29.624Z,71
2023-05-14T02:05:36.003Z,72
2023-05-14T02:10:43.750Z,72
2023-05-14T02:21:05.524Z,73
2023-05-14T02:26:04.049Z,73
2023-05-14T02:31:10.201Z,73
2023-05-14T02:36:18.163Z,73
2023-05-14T02:41:24.338Z,74
2023-05-14T02:46:32.404Z,74
2023-05-14T02:51:38.434Z,74
2023-05-14T03:01:52.728Z,75
2023-05-14T03:07:00.566Z,75
2023-05-14T03:12:06.708Z,75
2023-05-14T03:17:12.955Z,76
2023-05-14T03:22:20.824Z,76
2023-05-14T03:27:27.001Z,76
2023-05-14T03:32:34.971Z,77
2023-05-14T03:37:41.112Z,77
2023-05-14T03:42:47.318Z,77
2023-05-14T03:47:55.428Z,77
2023-05-14T03:53:03.184Z,78
2023-05-14T03:58:09.366Z,78
2023-05-14T04:03:15.678Z,78
2023-05-14T04:08:23.515Z,78
2023-05-14T04:13:29.659Z,79
2023-05-14T04:18:35.856Z,79
2023-05-14T04:23:43.777Z,79
2023-05-14T04:28:49.971Z,79
2023-05-14T04:33:56.126Z,79
2023-05-14T04:39:04.116Z,79
2023-05-14T04:44:12.063Z,80
2023-05-14T04:49:18.249Z,80
2023-05-14T04:54:24.513Z,80
2023-05-14T04:59:32.349Z,80
2023-05-14T05:04:38.532Z,80
2023-05-14T05:09:46.451Z,81
2023-05-14T05:14:52.655Z,81
2023-05-14T05:19:58.792Z,81
2023-05-14T05:25:06.754Z,81
2023-05-14T05:30:12.929Z,81
2023-05-14T05:35:19.089Z,80
2023-05-14T05:40:25.667Z,80
2023-05-14T05:45:33.198Z,80
2023-05-14T05:50:39.392Z,81
2023-05-14T05:55:47.336Z,82
2023-05-14T06:00:53.535Z,82
2023-05-14T06:06:01.471Z,82
2023-05-14T06:11:07.679Z,81
2023-05-14T06:16:15.615Z,81
2023-05-14T06:21:21.793Z,81
2023-05-14T06:26:27.932Z,80
2023-05-14T06:31:35.928Z,80
2023-05-14T06:36:42.080Z,79
2023-05-14T06:41:50.013Z,78
2023-05-14T06:46:56.179Z,78
2023-05-14T06:52:04.146Z,78
2023-05-14T06:57:10.305Z,79
2023-05-14T07:07:24.413Z,79
2023-05-14T07:12:30.579Z,78
2023-05-14T07:22:46.526Z,75
2023-05-14T07:38:06.793Z,78
2023-05-14T07:43:12.962Z,77
2023-05-14T07:48:19.160Z,77
2023-05-14T07:53:27.083Z,76
2023-05-14T07:58:33.266Z,75
2023-05-14T08:03:41.282Z,75
2023-05-14T08:08:47.390Z,74
2023-05-14T08:19:03.355Z,71
2023-05-14T08:24:09.498Z,70
2023-05-14T08:29:17.427Z,69
2023-05-14T08:34:23.570Z,68
2023-05-14T08:39:31.511Z,68
2023-05-14T08:44:37.699Z,68
2023-05-14T08:49:45.625Z,68
2023-05-14T08:54:51.795Z,69
2023-05-14T08:59:57.973Z,68
2023-05-14T09:05:04.155Z,68
2023-05-14T09:10:10.368Z,68
2023-05-14T09:15:18.431Z,67
2023-05-14T09:20:26.699Z,66
2023-05-14T09:25:34.192Z,65
2023-05-14T09:30:42.131Z,63
2023-05-14T09:35:48.306Z,63
2023-05-14T09:40:56.235Z,64
2023-05-14T09:46:02.399Z,65
2023-05-14T09:51:10.382Z,67
2023-05-14T09:56:16.524Z,68
2023-05-14T10:01:24.554Z,69
2023-05-14T10:06:30.648Z,69
2023-05-14T10:11:38.607Z,69
2023-05-14T10:16:44.804Z,69
2023-05-14T10:21:52.721Z,68
2023-05-14T10:26:58.948Z,67
2023-05-14T10:32:06.856Z,68
2023-05-14T10:37:13.012Z,68
2023-05-14T10:42:20.962Z,69
2023-05-14T10:47:27.150Z,69
2023-05-14T10:52:33.304Z,69
2023-05-14T10:57:39.741Z,69
2023-05-14T11:02:47.463Z,68
2023-05-14T11:13:03.322Z,65
2023-05-14T11:18:11.288Z,63
2023-05-14T11:23:17.427Z,62
2023-05-14T11:28:23.608Z,60
2023-05-14T11:33:31.580Z,59
2023-05-14T11:38:39.521Z,58
2023-05-14T11:43:47.439Z,57
2023-05-14T11:48:53.596Z,56
2023-05-14T11:54:01.570Z,55
2023-05-14T11:59:07.792Z,55
2023-05-14T12:04:15.734Z,54
2023-05-14T12:09:21.880Z,54
2023-05-14T12:14:29.814Z,53
2023-05-14T12:24:43.938Z,52
2023-05-14T12:29:51.954Z,52
2023-05-14T12:34:58.046Z,53
2023-05-14T12:40:06.055Z,54
2023-05-14T12:45:12.183Z,53
2023-05-14T12:50:20.129Z,53
2023-05-14T12:55:28.065Z,52
2023-05-14T13:00:34.268Z,52
2023-05-14T13:05:42.194Z,51
2023-05-14T13:10:48.399Z,51
2023-05-14T13:15:56.307Z,50
2023-05-14T13:21:02.461Z,50
2023-05-14T13:26:10.400Z,51
2023-05-14T13:31:16.651Z,51
2023-05-14T13:36:24.554Z,52
2023-05-14T13:41:30.728Z,53
2023-05-14T13:46:36.938Z,54
2023-05-14T13:51:43.032Z,54
2023-05-14T13:56:49.198Z,53
2023-05-14T14:07:03.312Z,52
2023-05-14T14:12:11.282Z,51
2023-05-14T14:17:17.423Z,51
2023-05-14T14:22:27.299Z,51
2023-05-14T14:27:31.586Z,51
2023-05-14T14:32:39.647Z,51
2023-05-14T14:37:45.682Z,51
2023-05-14T14:42:53.617Z,50
2023-05-14T14:47:59.852Z,50
2023-05-14T14:53:07.736Z,50
2023-05-14T14:58:13.903Z,49
2023-05-14T15:03:21.993Z,50
2023-05-14T15:08:28.028Z,50
2023-05-14T15:13:34.193Z,49
2023-05-14T15:18:40.427Z,49
2023-05-14T15:23:46.552Z,49
2023-05-14T15:28:52.705Z,50
2023-05-14T15:34:00.660Z,50
2023-05-14T15:39:06.816Z,50
2023-05-14T15:44:14.759Z,50
2023-05-14T15:54:28.854Z,49
2023-05-14T15:59:37.053Z,49
2023-05-14T16:04:43.005Z,49
2023-05-14T16:09:50.938Z,49
2023-05-14T16:14:57.104Z,49
2023-05-14T16:20:05.059Z,49
2023-05-14T16:25:13.009Z,49
2023-05-14T16:30:19.173Z,50
2023-05-14T16:35:27.317Z,49
2023-05-14T16:40:33.282Z,50
2023-05-14T16:45:41.245Z,50
2023-05-14T16:50:47.434Z,50
2023-05-14T16:55:55.369Z,50
2023-05-14T17:01:01.515Z,51
2023-05-14T17:06:09.434Z,50
2023-05-14T17:11:15.628Z,51
2023-05-14T17:16:23.582Z,51
2023-05-14T17:21:29.757Z,52
2023-05-14T17:26:35.920Z,53
2023-05-14T17:31:42.109Z,53
2023-05-14T17:36:48.209Z,54
2023-05-14T17:41:56.196Z,54
2023-05-14T17:47:02.445Z,54
2023-05-14T17:52:10.346Z,54
2023-05-14T17:57:18.269Z,54
2023-05-14T18:07:34.175Z,54
2023-05-14T18:12:42.122Z,54
2023-05-14T18:17:50.101Z,54
2023-05-14T18:22:58.012Z,54
2023-05-14T18:28:05.966Z,54
2023-05-14T18:33:12.177Z,54
2023-05-14T18:38:18.285Z,54
2023-05-14T18:43:24.443Z,54
2023-05-14T18:48:30.718Z,54
2023-05-14T18:53:38.579Z,54
2023-05-14T18:58:44.780Z,54
2023-05-14T19:03:52.995Z,54
2023-05-14T19:09:00.719Z,55
2023-05-14T19:14:06.817Z,54
2023-05-14T19:19:13.149Z,55
2023-05-14T19:24:19.153Z,55
2023-05-14T19:29:25.293Z,55
2023-05-14T19:34:33.249Z,55
2023-05-14T19:39:41.194Z,55
2023-05-14T19:44:49.157Z,56
2023-05-14T19:49:55.333Z,56
2023-05-14T19:55:03.296Z,56
2023-05-14T20:00:09.456Z,56
2023-05-14T20:05:15.630Z,56
2023-05-14T20:10:24.021Z,56
2023-05-14T20:15:31.454Z,56
2023-05-14T20:20:37.674Z,57
2023-05-14T20:25:45.655Z,57
2023-05-14T20:30:51.818Z,56
2023-05-14T20:35:59.790Z,57
2023-05-14T20:41:05.935Z,57
2023-05-14T20:46:13.921Z,57
2023-05-14T20:51:20.037Z,57
2023-05-14T20:56:28.062Z,57
2023-05-14T21:01:34.177Z,57
2023-05-14T21:06:40.326Z,57
2023-05-14T21:11:46.484Z,57
2023-05-14T21:16:52.719Z,57
2023-05-14T21:22:00.606Z,57
2023-05-14T21:27:06.782Z,58
2023-05-14T21:32:12.950Z,58
2023-05-14T21:37:20.928Z,58
2023-05-14T21:47:35.113Z,58
2023-05-14T21:52:41.189Z,58
2023-05-14T21:57:47.394Z,58
2023-05-14T22:02:55.377Z,58
2023-05-14T22:08:03.292Z,58
2023-05-14T22:13:09.468Z,59
2023-05-14T22:18:15.606Z,59
2023-05-14T22:23:23.582Z,59
2023-05-14T22:28:31.505Z,59
2023-05-14T22:33:37.673Z,59
2023-05-14T22:38:43.850Z,60
2023-05-14T22:43:51.808Z,60
2023-05-14T22:48:57.969Z,60
2023-05-14T22:59:12.098Z,60
2023-05-14T23:04:20.057Z,60
2023-05-14T23:09:27.991Z,60
2023-05-14T23:14:34.137Z,61
2023-05-14T23:19:42.125Z,61
2023-05-14T23:24:50.064Z,61
2023-05-14T23:29:58.007Z,61
2023-05-14T23:35:05.965Z,61
2023-05-14T23:40:12.134Z,61
2023-05-14T23:45:20.088Z,61
2023-05-14T23:50:26.251Z,61
2023-05-14T23:55:34.191Z,62
